Time;durP1;ratioP1;P1;durP2;ratioP2;P2;SDS_P1;SDS_P2;PMS_P1;PMS_P2;Temp;Humidity;BMP_temperature;BMP_pressure;BME280_temperature;BME280_humidity;BME280_pressure;Samples;Min_cycle;Max_cycle;Signal;HPM_P1;HPM_P2
2022/08/29 00:02:19;;;;;;;9.75;8.77;;;17.50;99.90;;;;;;4994284;28;20202;-88
2022/08/29 00:04:45;;;;;;;11.35;8.60;;;17.40;99.90;;;;;;4994346;28;20205;-88
2022/08/29 00:07:11;;;;;;;9.98;8.98;;;17.40;99.90;;;;;;4993697;28;20631;-88
2022/08/29 00:09:37;;;;;;;10.85;9.15;;;17.40;99.90;;;;;;4994506;28;20183;-88
2022/08/29 00:12:04;;;;;;;9.75;8.85;;;17.30;99.90;;;;;;4994011;28;20208;-88
2022/08/29 00:14:30;;;;;;;10.48;9.38;;;17.30;99.90;;;;;;4994126;28;20215;-88
2022/08/29 00:16:56;;;;;;;10.30;9.02;;;17.30;99.90;;;;;;4993788;28;20183;-88
2022/08/29 00:19:22;;;;;;;9.32;8.40;;;17.30;99.90;;;;;;4994180;28;20211;-88
2022/08/29 00:21:48;;;;;;;10.48;8.63;;;17.40;99.90;;;;;;4993612;28;20238;-88
2022/08/29 00:24:15;;;;;;;9.83;8.37;;;17.30;99.90;;;;;;4994350;28;20278;-89
2022/08/29 00:26:41;;;;;;;9.40;8.60;;;17.30;99.90;;;;;;4993837;28;20213;-88
2022/08/29 00:29:07;;;;;;;9.43;8.52;;;17.30;99.90;;;;;;4994177;28;20182;-88
2022/08/29 00:31:33;;;;;;;9.75;8.75;;;17.30;99.90;;;;;;4993879;28;20207;-88
2022/08/29 00:33:59;;;;;;;10.50;9.40;;;17.20;99.90;;;;;;5010291;28;20217;-88
2022/08/29 00:36:25;;;;;;;10.80;9.73;;;17.10;99.90;;;;;;4993491;28;20235;-88
2022/08/29 00:38:51;;;;;;;11.32;9.82;;;17.10;99.90;;;;;;4993816;28;20183;-88
2022/08/29 00:41:18;;;;;;;10.50;9.43;;;17.10;99.90;;;;;;4993892;28;20196;-88
2022/08/29 00:43:44;;;;;;;10.98;9.32;;;17.20;99.90;;;;;;4993861;28;20211;-88
2022/08/29 00:46:28;;;;;;;10.10;8.98;;;17.20;99.90;;;;;;5014658;28;20179;-88
2022/08/29 00:49:03;;;;;;;10.93;8.85;;;17.20;99.90;;;;;;4994062;28;20194;-88
2022/08/29 00:51:30;;;;;;;11.32;10.23;;;17.00;99.90;;;;;;4993666;28;20199;-88
2022/08/29 00:54:06;;;;;;;11.63;9.20;;;16.90;99.90;;;;;;4993563;28;20215;-88
2022/08/29 00:56:35;;;;;;;10.43;9.33;;;16.80;99.90;;;;;;4993698;28;20210;-89
2022/08/29 00:59:15;;;;;;;14.47;9.13;;;16.70;99.90;;;;;;4993317;28;20183;-88
2022/08/29 01:01:42;;;;;;;11.23;8.83;;;16.70;99.90;;;;;;4993125;28;20222;-88
2022/08/29 01:04:09;;;;;;;11.03;9.33;;;16.70;99.90;;;;;;5009778;28;20195;-88
2022/08/29 01:06:36;;;;;;;10.70;9.63;;;16.70;99.90;;;;;;4993462;28;20267;-89
2022/08/29 01:09:03;;;;;;;11.70;9.50;;;16.80;99.90;;;;;;4993176;28;20234;-88
2022/08/29 01:14:17;;;;;;;12.47;10.27;;;16.90;99.90;;;;;;5009703;28;20222;-88
2022/08/29 01:16:45;;;;;;;10.03;9.13;;;16.90;99.90;;;;;;4993230;28;20190;-88
2022/08/29 01:19:41;;;;;;;10.20;9.30;;;16.90;99.90;;;;;;4993364;28;20209;-88
2022/08/29 01:22:28;;;;;;;11.80;9.93;;;16.80;99.90;;;;;;4993122;28;20206;-88
2022/08/29 01:24:57;;;;;;;9.33;8.43;;;16.80;99.90;;;;;;5009676;28;20187;-88
2022/08/29 01:27:39;;;;;;;9.77;8.87;;;16.70;99.90;;;;;;4992843;28;20190;-88
2022/08/29 01:30:05;;;;;;;9.93;9.03;;;16.70;99.90;;;;;;4993327;28;20176;-88
2022/08/29 01:32:32;;;;;;;9.70;8.67;;;16.70;99.90;;;;;;4992973;28;20195;-88
2022/08/29 01:34:57;;;;;;;10.07;9.00;;;16.70;99.90;;;;;;4993292;28;20207;-88
2022/08/29 01:37:29;;;;;;;9.50;8.43;;;16.70;99.90;;;;;;4992953;28;20175;-88
2022/08/29 01:39:55;;;;;;;10.63;9.57;;;16.70;99.90;;;;;;5009687;28;20253;-88
2022/08/29 01:42:22;;;;;;;10.50;9.43;;;16.70;99.90;;;;;;4993268;28;20681;-88
2022/08/29 01:44:50;;;;;;;11.83;9.83;;;16.70;99.90;;;;;;5009502;28;20219;-88
2022/08/29 01:47:18;;;;;;;11.43;10.23;;;16.70;99.90;;;;;;4992319;28;20189;-88
2022/08/29 01:49:44;;;;;;;10.13;8.90;;;16.70;99.90;;;;;;4993040;28;20215;-88
2022/08/29 01:52:14;;;;;;;10.07;8.23;;;16.60;99.90;;;;;;4992897;28;20207;-88
2022/08/29 01:54:42;;;;;;;9.70;8.80;;;16.60;99.90;;;;;;4992921;28;20245;-87
2022/08/29 01:57:09;;;;;;;10.13;9.07;;;16.50;99.90;;;;;;4992841;28;20230;-88
2022/08/29 01:59:35;;;;;;;11.07;9.93;;;16.40;99.90;;;;;;4992692;28;20214;-88
2022/08/29 02:02:07;;;;;;;9.23;8.43;;;16.40;99.90;;;;;;4992732;28;20230;-88
2022/08/29 02:04:34;;;;;;;10.60;9.30;;;16.40;99.90;;;;;;4993153;28;20214;-88
2022/08/29 02:07:00;;;;;;;11.57;9.87;;;16.50;99.90;;;;;;4992664;28;20270;-88
2022/08/29 02:09:27;;;;;;;11.87;10.10;;;16.40;99.90;;;;;;4993153;28;20206;-88
2022/08/29 02:11:56;;;;;;;9.97;9.07;;;16.40;99.90;;;;;;4992746;28;20203;-88
2022/08/29 02:14:23;;;;;;;12.40;10.70;;;16.40;99.90;;;;;;4996109;28;20211;-88
2022/08/29 02:16:50;;;;;;;11.77;10.40;;;16.30;99.90;;;;;;4996336;28;20183;-88
2022/08/29 02:19:16;;;;;;;10.17;9.17;;;16.30;99.90;;;;;;4996422;28;20184;-88
2022/08/29 02:21:43;;;;;;;10.83;9.73;;;16.40;99.90;;;;;;4996562;28;20207;-88
2022/08/29 02:24:09;;;;;;;10.50;9.40;;;16.30;99.90;;;;;;5012706;28;20179;-88
2022/08/29 02:26:35;;;;;;;12.43;9.63;;;16.30;99.90;;;;;;4996233;28;20195;-88
2022/08/29 02:29:01;;;;;;;11.03;9.00;;;16.20;99.90;;;;;;4996006;28;20210;-88
2022/08/29 02:31:27;;;;;;;10.00;9.00;;;16.20;99.90;;;;;;4996040;28;20238;-87
2022/08/29 02:33:53;;;;;;;10.53;9.20;;;16.20;99.90;;;;;;4995932;28;20242;-88
2022/08/29 02:36:20;;;;;;;12.13;9.90;;;16.20;99.90;;;;;;4996189;28;20187;-88
2022/08/29 02:38:47;;;;;;;11.90;9.90;;;16.10;99.90;;;;;;4996208;28;20278;-88
2022/08/29 02:41:14;;;;;;;11.77;9.07;;;16.10;99.90;;;;;;5012924;28;20196;-88
2022/08/29 02:43:40;;;;;;;10.60;9.60;;;16.10;99.90;;;;;;4996664;28;20229;-88
2022/08/29 02:46:06;;;;;;;10.77;9.57;;;16.00;99.90;;;;;;4996411;28;20281;-87
2022/08/29 02:48:32;;;;;;;11.47;10.10;;;16.00;99.90;;;;;;4996152;28;20266;-88
2022/08/29 02:50:58;;;;;;;9.87;8.87;;;16.00;99.90;;;;;;4996863;28;20195;-88
2022/08/29 02:53:27;;;;;;;10.00;9.00;;;15.90;99.90;;;;;;5012906;28;20214;-88
2022/08/29 02:55:53;;;;;;;9.97;8.97;;;15.80;99.90;;;;;;4996663;28;20183;-88
2022/08/29 02:58:21;;;;;;;10.30;9.33;;;15.80;99.90;;;;;;4996582;28;20183;-88
2022/08/29 03:00:48;;;;;;;11.73;9.30;;;15.70;99.90;;;;;;4995718;28;20206;-88
2022/08/29 03:03:14;;;;;;;10.20;9.20;;;15.70;99.90;;;;;;4995666;28;20183;-87
2022/08/29 03:05:40;;;;;;;10.47;9.37;;;15.70;99.90;;;;;;4995664;28;20176;-87
2022/08/29 03:08:09;;;;;;;11.10;9.77;;;15.70;99.90;;;;;;4995350;28;20191;-88
2022/08/29 03:10:36;;;;;;;10.67;9.10;;;15.70;99.90;;;;;;4995007;28;20246;-88
2022/08/29 03:13:02;;;;;;;10.37;9.27;;;15.70;99.90;;;;;;4995058;28;20192;-87
2022/08/29 03:15:28;;;;;;;11.40;9.50;;;15.60;99.90;;;;;;4995305;28;20199;-88
2022/08/29 03:17:54;;;;;;;10.33;9.13;;;15.60;99.90;;;;;;4995061;28;20182;-88
2022/08/29 03:20:22;;;;;;;11.03;9.67;;;15.60;99.90;;;;;;4995077;28;20238;-88
2022/08/29 03:22:49;;;;;;;10.43;9.20;;;15.60;99.90;;;;;;4995047;28;20211;-88
2022/08/29 03:25:16;;;;;;;10.73;9.60;;;15.60;99.90;;;;;;4994792;28;20191;-88
2022/08/29 03:27:42;;;;;;;13.03;9.57;;;15.60;99.90;;;;;;4994790;28;20187;-88
2022/08/29 03:30:10;;;;;;;9.97;8.97;;;15.50;99.90;;;;;;4994886;28;20222;-88
2022/08/29 03:32:37;;;;;;;9.93;8.90;;;15.50;99.90;;;;;;4994800;28;20207;-88
2022/08/29 03:35:04;;;;;;;11.97;8.60;;;15.40;99.90;;;;;;4994966;28;20215;-88
2022/08/29 03:37:31;;;;;;;9.83;8.67;;;15.40;99.90;;;;;;4994554;28;20179;-88
2022/08/29 03:39:57;;;;;;;9.57;8.63;;;15.40;99.90;;;;;;4994992;28;20222;-88
2022/08/29 03:42:23;;;;;;;11.07;10.03;;;15.40;99.90;;;;;;4994736;28;20203;-88
2022/08/29 03:44:49;;;;;;;11.07;8.93;;;15.40;99.90;;;;;;4994703;28;20187;-88
2022/08/29 03:47:15;;;;;;;11.27;9.70;;;15.40;99.90;;;;;;4994662;28;20179;-87
2022/08/29 03:49:41;;;;;;;11.60;10.50;;;15.30;99.90;;;;;;5010974;28;20191;-88
2022/08/29 03:52:10;;;;;;;11.07;9.50;;;15.30;99.90;;;;;;4994385;28;20206;-88
2022/08/29 03:54:36;;;;;;;11.67;10.50;;;15.20;99.90;;;;;;4994509;28;20211;-88
2022/08/29 03:57:06;;;;;;;11.70;10.60;;;15.20;99.90;;;;;;4994207;28;20171;-88
2022/08/29 03:59:33;;;;;;;13.43;10.77;;;15.10;99.90;;;;;;4994434;28;20178;-88
2022/08/29 04:01:59;;;;;;;12.30;11.03;;;14.90;99.90;;;;;;5009945;28;20249;-88
2022/08/29 04:07:13;;;;;;;12.57;11.33;;;14.90;99.90;;;;;;5010489;28;20207;-88
2022/08/29 04:09:40;;;;;;;12.47;10.57;;;14.90;99.90;;;;;;5010907;28;20226;-87
2022/08/29 04:12:07;;;;;;;13.23;11.13;;;14.90;99.90;;;;;;4994260;28;20231;-87
2022/08/29 04:14:34;;;;;;;11.60;10.50;;;14.90;99.90;;;;;;4994106;28;20324;-87
2022/08/29 04:17:00;;;;;;;12.60;11.07;;;14.90;99.90;;;;;;4993780;28;20187;-87
2022/08/29 04:19:26;;;;;;;12.43;10.70;;;14.90;99.90;;;;;;4994121;28;20183;-88
2022/08/29 04:21:52;;;;;;;12.17;10.97;;;14.90;99.90;;;;;;4994064;28;20205;-87
2022/08/29 04:24:18;;;;;;;12.50;11.20;;;14.90;99.90;;;;;;4993899;28;20218;-87
2022/08/29 04:26:44;;;;;;;12.03;10.70;;;14.90;99.90;;;;;;4993862;28;20290;-88
2022/08/29 04:29:12;;;;;;;11.67;10.33;;;14.90;99.90;;;;;;4994086;28;20180;-87
2022/08/29 04:31:40;;;;;;;12.33;10.67;;;14.80;99.90;;;;;;4993607;28;20206;-88
2022/08/29 04:34:08;;;;;;;11.87;10.60;;;14.80;99.90;;;;;;4993701;28;20218;-88
2022/08/29 04:36:35;;;;;;;12.97;10.83;;;14.80;99.90;;;;;;4993198;28;20179;-87
2022/08/29 04:39:02;;;;;;;11.43;10.13;;;14.90;99.90;;;;;;4993696;28;20184;-87
2022/08/29 04:41:28;;;;;;;12.53;11.07;;;14.90;99.90;;;;;;4993750;28;20199;-87
2022/08/29 04:43:54;;;;;;;12.07;10.77;;;14.90;99.90;;;;;;4993731;28;20191;-88
2022/08/29 04:46:20;;;;;;;12.37;9.93;;;14.90;99.90;;;;;;4993524;28;20237;-88
2022/08/29 04:48:46;;;;;;;13.43;11.17;;;14.90;99.90;;;;;;5009915;28;20214;-88
2022/08/29 04:51:12;;;;;;;11.73;10.50;;;14.90;99.90;;;;;;4993303;28;20258;-87
2022/08/29 04:53:38;;;;;;;11.67;10.50;;;14.80;99.90;;;;;;4993528;28;20206;-88
2022/08/29 04:56:07;;;;;;;13.50;10.50;;;14.80;99.90;;;;;;5000722;28;20259;-89
2022/08/29 04:58:35;;;;;;;11.20;10.10;;;14.80;99.90;;;;;;5010254;28;20183;-87
2022/08/29 05:01:02;;;;;;;12.20;9.80;;;14.80;99.90;;;;;;5009283;28;20207;-87
2022/08/29 05:03:29;;;;;;;11.37;10.13;;;14.80;99.90;;;;;;4993364;28;20206;-88
2022/08/29 05:06:00;;;;;;;11.73;9.57;;;14.80;99.90;;;;;;4993615;28;20179;-87
2022/08/29 05:08:28;;;;;;;11.53;10.33;;;14.80;99.90;;;;;;5009859;28;20191;-88
2022/08/29 05:10:54;;;;;;;10.87;9.77;;;14.80;99.90;;;;;;4993359;28;20285;-87
2022/08/29 05:13:21;;;;;;;11.60;10.40;;;14.80;99.90;;;;;;4993113;28;20582;-87
2022/08/29 05:15:48;;;;;;;10.73;9.63;;;14.80;99.90;;;;;;5009695;28;20187;-88
2022/08/29 05:18:16;;;;;;;12.20;9.57;;;14.80;99.90;;;;;;5009453;28;20190;-87
2022/08/29 05:20:44;;;;;;;11.67;10.47;;;14.80;99.90;;;;;;4993514;28;20204;-87
2022/08/29 05:23:11;;;;;;;11.80;10.60;;;14.80;99.90;;;;;;4993277;28;20179;-88
2022/08/29 05:25:38;;;;;;;11.27;10.17;;;14.80;99.90;;;;;;4993380;28;20195;-87
2022/08/29 05:28:05;;;;;;;12.23;9.77;;;14.70;99.90;;;;;;4992843;28;20176;-88
2022/08/29 05:30:31;;;;;;;11.87;10.33;;;14.70;99.90;;;;;;4992975;28;20270;-88
2022/08/29 05:32:58;;;;;;;11.23;10.03;;;14.70;99.90;;;;;;4993167;28;20210;-87
2022/08/29 05:35:25;;;;;;;11.77;9.90;;;14.70;99.90;;;;;;4993149;28;20638;-87
2022/08/29 05:37:51;;;;;;;13.37;10.07;;;14.70;99.90;;;;;;4992865;28;20187;-88
2022/08/29 05:40:17;;;;;;;11.37;9.90;;;14.80;99.90;;;;;;5009542;28;20206;-88
2022/08/29 05:42:43;;;;;;;13.30;10.73;;;14.90;99.90;;;;;;5009315;28;20194;-87
2022/08/29 05:45:09;;;;;;;11.73;10.30;;;15.00;99.90;;;;;;5009538;28;20179;-87
2022/08/29 05:47:35;;;;;;;9.60;8.67;;;15.10;99.90;;;;;;4993980;28;20190;-87
2022/08/29 05:50:01;;;;;;;10.97;9.87;;;15.20;99.90;;;;;;4997138;28;20186;-88
2022/08/29 05:52:28;;;;;;;11.77;10.33;;;15.20;99.90;;;;;;4997011;28;20214;-88
2022/08/29 05:54:54;;;;;;;11.33;10.23;;;15.30;99.90;;;;;;4996923;28;20384;-87
2022/08/29 05:57:22;;;;;;;12.20;10.90;;;15.30;99.90;;;;;;4996485;28;20266;-87
2022/08/29 05:59:50;;;;;;;12.57;10.63;;;15.40;99.90;;;;;;4996536;28;20199;-88
2022/08/29 06:02:18;;;;;;;13.27;11.93;;;15.50;99.90;;;;;;4996986;28;20199;-88
2022/08/29 06:04:44;;;;;;;12.93;11.63;;;15.60;99.90;;;;;;4997623;28;20191;-87
2022/08/29 06:07:11;;;;;;;12.53;11.33;;;15.70;99.90;;;;;;5014841;28;20389;-88
2022/08/29 06:09:39;;;;;;;15.20;11.13;;;15.90;99.90;;;;;;4996464;28;20273;-88
2022/08/29 06:12:06;;;;;;;13.43;11.17;;;15.90;99.90;;;;;;4996422;28;20207;-88
2022/08/29 06:14:32;;;;;;;12.87;11.67;;;16.00;99.90;;;;;;4996577;28;20291;-88
2022/08/29 06:16:59;;;;;;;12.43;10.90;;;16.10;99.90;;;;;;5013110;28;20262;-88
2022/08/29 06:19:25;;;;;;;12.63;11.30;;;16.20;99.90;;;;;;4996939;28;20179;-87
2022/08/29 06:21:54;;;;;;;13.10;11.70;;;16.30;99.90;;;;;;4997039;28;20265;-87
2022/08/29 06:24:20;;;;;;;12.07;10.87;;;16.40;99.90;;;;;;5013411;28;20235;-87
2022/08/29 06:26:46;;;;;;;11.80;10.60;;;16.50;99.90;;;;;;4997100;28;20192;-87
2022/08/29 06:29:13;;;;;;;12.27;10.57;;;16.50;99.90;;;;;;4997589;28;20175;-87
2022/08/29 06:31:39;;;;;;;12.50;11.30;;;16.60;99.90;;;;;;4997234;28;20207;-87
2022/08/29 06:34:06;;;;;;;10.90;9.80;;;16.60;99.90;;;;;;4997349;28;20320;-88
2022/08/29 06:36:33;;;;;;;11.07;9.97;;;16.70;99.90;;;;;;4995982;28;20179;-88
2022/08/29 06:39:03;;;;;;;12.20;10.87;;;16.80;99.90;;;;;;4995850;28;20185;-87
2022/08/29 06:41:29;;;;;;;11.97;10.70;;;16.90;99.90;;;;;;4995910;28;20199;-88
2022/08/29 06:43:58;;;;;;;16.10;11.37;;;17.00;99.90;;;;;;5012366;28;20270;-88
2022/08/29 06:46:37;;;;;;;12.53;11.17;;;17.00;99.90;;;;;;4995883;28;20190;-88
2022/08/29 06:49:06;;;;;;;14.40;11.00;;;17.00;99.90;;;;;;4995828;28;20669;-88
2022/08/29 06:51:35;;;;;;;11.47;10.27;;;17.10;99.90;;;;;;4995665;28;20238;-87
2022/08/29 06:54:05;;;;;;;11.67;10.57;;;17.20;99.90;;;;;;4995746;28;20341;-88
2022/08/29 06:56:31;;;;;;;12.00;10.90;;;17.30;99.90;;;;;;4995717;28;20269;-88
2022/08/29 06:58:57;;;;;;;12.85;11.02;;;17.40;99.90;;;;;;4994900;28;20180;-88
2022/08/29 07:01:24;;;;;;;13.25;11.95;;;17.50;99.90;;;;;;4995449;28;20209;-88
2022/08/29 07:03:53;;;;;;;13.57;12.23;;;17.60;99.90;;;;;;4995330;28;20273;-88
2022/08/29 07:06:19;;;;;;;16.02;12.48;;;17.70;99.90;;;;;;4995416;28;20263;-88
2022/08/29 07:08:47;;;;;;;14.27;11.10;;;17.70;99.90;;;;;;4995248;28;20634;-88
2022/08/29 07:11:13;;;;;;;12.23;11.02;;;17.80;99.90;;;;;;4995552;28;20199;-88
2022/08/29 07:13:39;;;;;;;13.15;11.90;;;17.90;99.90;;;;;;5011848;28;20199;-88
2022/08/29 07:16:15;;;;;;;13.27;11.50;;;18.00;99.90;;;;;;4995308;28;20172;-88
2022/08/29 07:18:42;;;;;;;13.55;11.35;;;18.10;99.90;;;;;;4995244;28;20179;-88
2022/08/29 07:21:10;;;;;;;13.00;11.70;;;18.20;99.90;;;;;;5011678;28;20242;-88
2022/08/29 07:23:36;;;;;;;12.63;11.30;;;18.30;99.90;;;;;;4995331;28;20183;-88
2022/08/29 07:26:09;;;;;;;13.43;11.60;;;18.40;99.90;;;;;;5011320;28;20202;-88
2022/08/29 07:28:36;;;;;;;12.10;11.00;;;18.50;99.90;;;;;;4994967;28;20179;-88
2022/08/29 07:31:03;;;;;;;13.32;11.82;;;18.50;99.90;;;;;;4994790;28;20207;-88
2022/08/29 07:33:30;;;;;;;12.60;11.32;;;18.60;99.90;;;;;;4994985;28;20206;-88
2022/08/29 07:35:56;;;;;;;14.85;12.45;;;18.70;99.90;;;;;;4994931;28;20180;-88
2022/08/29 07:38:22;;;;;;;13.52;12.25;;;18.80;99.90;;;;;;4994862;28;20175;-88
2022/08/29 07:40:55;;;;;;;14.20;12.68;;;18.90;99.90;;;;;;5011005;28;20198;-88
2022/08/29 07:43:21;;;;;;;13.73;12.32;;;19.10;99.90;;;;;;4994603;28;20700;-88
2022/08/29 07:45:47;;;;;;;13.98;12.52;;;19.20;99.90;;;;;;4994705;28;20191;-88
2022/08/29 07:48:13;;;;;;;16.40;14.65;;;19.40;99.90;;;;;;4994661;28;20183;-88
2022/08/29 07:50:41;;;;;;;13.02;11.73;;;19.50;99.90;;;;;;4994766;28;20249;-88
2022/08/29 07:53:07;;;;;;;14.30;12.75;;;19.70;99.90;;;;;;4994586;28;20187;-88
2022/08/29 07:55:33;;;;;;;13.85;12.48;;;19.80;99.90;;;;;;4994463;28;20184;-88
2022/08/29 07:57:59;;;;;;;18.27;13.38;;;20.00;99.90;;;;;;4994275;28;20179;-88
2022/08/29 08:00:25;;;;;;;14.20;12.80;;;20.10;99.90;;;;;;4994285;28;20175;-88
2022/08/29 08:02:51;;;;;;;14.02;12.63;;;20.20;99.90;;;;;;5010928;28;20207;-88
2022/08/29 08:05:17;;;;;;;14.35;13.05;;;20.30;99.90;;;;;;4994464;28;20179;-88
2022/08/29 08:07:42;;;;;;;13.73;12.35;;;20.30;99.90;;;;;;5010469;28;20680;-88
2022/08/29 08:10:09;;;;;;;13.65;12.18;;;20.40;99.90;;;;;;4993551;28;20199;-88
2022/08/29 08:12:34;;;;;;;14.57;13.05;;;20.50;99.90;;;;;;4993943;28;20225;-88
2022/08/29 08:15:02;;;;;;;14.07;12.52;;;20.60;99.90;;;;;;4994313;28;20244;-89
2022/08/29 08:17:29;;;;;;;12.48;11.27;;;20.80;99.90;;;;;;4994074;28;20199;-88
2022/08/29 08:19:55;;;;;;;12.48;11.18;;;21.00;99.90;;;;;;5010548;28;20179;-88
2022/08/29 08:22:20;;;;;;;13.55;11.25;;;21.10;99.90;;;;;;4994217;28;20203;-88
2022/08/29 08:24:47;;;;;;;11.60;10.50;;;21.20;99.90;;;;;;4993996;28;20274;-88
2022/08/29 08:27:13;;;;;;;17.73;11.88;;;21.30;99.90;;;;;;4993618;28;20195;-88
2022/08/29 08:29:39;;;;;;;12.25;11.05;;;21.30;99.90;;;;;;4993962;28;20179;-88
2022/08/29 08:32:05;;;;;;;12.10;9.00;;;21.50;99.90;;;;;;4993746;28;20257;-88
2022/08/29 08:34:31;;;;;;;9.70;8.80;;;21.50;99.90;;;;;;4994304;28;20218;-88
2022/08/29 08:36:57;;;;;;;9.48;7.80;;;21.80;99.90;;;;;;4993758;28;20179;-88
2022/08/29 08:39:23;;;;;;;10.80;9.70;;;21.90;99.90;;;;;;4993921;28;20183;-88
2022/08/29 08:42:03;;;;;;;9.10;8.20;;;22.10;99.90;;;;;;4993501;28;20265;-88
2022/08/29 08:44:48;;;;;;;9.85;8.85;;;22.20;99.90;;;;;;4994109;28;20329;-87
2022/08/29 08:47:22;;;;;;;8.43;7.53;;;22.30;99.90;;;;;;4993644;28;20182;-87
2022/08/29 08:49:55;;;;;;;8.27;7.47;;;22.60;99.90;;;;;;5010344;28;20217;-87
2022/08/29 08:52:31;;;;;;;7.88;7.18;;;22.80;99.90;;;;;;4993795;28;20203;-87
2022/08/29 08:55:11;;;;;;;7.43;6.72;;;23.10;99.90;;;;;;4994055;28;20221;-87
2022/08/29 08:57:42;;;;;;;9.02;8.10;;;23.30;99.90;;;;;;5009954;28;20187;-87
2022/08/29 09:00:11;;;;;;;8.55;7.13;;;23.30;99.90;;;;;;4993719;28;20183;-87
2022/08/29 09:03:05;;;;;;;9.73;6.53;;;23.40;99.90;;;;;;5008706;28;20362;-87
2022/08/29 09:05:39;;;;;;;6.85;6.15;;;23.40;99.90;;;;;;4993905;28;20229;-88
2022/08/29 09:08:41;;;;;;;7.07;6.40;;;23.50;99.90;;;;;;4993739;28;20182;-87
2022/08/29 09:11:18;;;;;;;6.38;5.75;;;23.60;99.90;;;;;;5007561;28;20214;-88
2022/08/29 09:13:47;;;;;;;6.57;5.88;;;23.90;99.90;;;;;;4993672;28;20305;-88
2022/08/29 09:16:43;;;;;;;6.65;5.95;;;24.10;99.90;;;;;;4993713;28;20175;-88
2022/08/29 09:19:11;;;;;;;6.35;5.25;;;24.30;99.90;;;;;;4993899;28;20233;-87
2022/08/29 09:21:52;;;;;;;6.32;5.40;;;24.40;99.90;;;;;;4994590;28;20198;-87
2022/08/29 09:24:43;;;;;;;5.82;4.90;;;24.60;99.90;;;;;;4998051;28;20237;-87
2022/08/29 09:27:22;;;;;;;5.93;5.30;;;24.70;99.90;;;;;;4997342;28;20201;-88
2022/08/29 09:29:54;;;;;;;6.22;5.63;;;24.70;99.90;;;;;;4997657;28;20668;-87
2022/08/29 09:32:19;;;;;;;7.00;5.10;;;24.90;99.90;;;;;;4997507;28;20238;-88
2022/08/29 09:34:47;;;;;;;5.30;4.80;;;25.00;99.90;;;;;;4997457;28;20207;-88
2022/08/29 09:37:27;;;;;;;5.75;5.25;;;25.10;99.90;;;;;;4997322;28;20183;-88
2022/08/29 09:40:10;;;;;;;6.30;5.35;;;25.30;99.90;;;;;;4997516;28;20646;-87
2022/08/29 09:42:40;;;;;;;5.90;5.35;;;25.40;99.90;;;;;;5013781;28;20199;-88
2022/08/29 09:45:23;;;;;;;6.55;5.53;;;25.60;99.90;;;;;;4997561;28;20237;-87
2022/08/29 09:48:06;;;;;;;7.13;4.95;;;25.70;99.90;;;;;;4996952;28;20274;-88
2022/08/29 09:50:32;;;;;;;5.43;4.93;;;25.90;99.90;;;;;;4997236;28;20257;-88
2022/08/29 09:53:01;;;;;;;5.75;5.20;;;26.00;99.90;;;;;;4997206;28;20191;-88
2022/08/29 09:55:38;;;;;;;6.10;4.75;;;26.10;99.90;;;;;;5013985;28;20218;-88
2022/08/29 09:58:15;;;;;;;5.38;4.90;;;26.00;99.90;;;;;;4997440;28;20182;-88
2022/08/29 10:00:57;;;;;;;8.82;5.60;;;26.10;99.90;;;;;;4997562;28;20202;-87
2022/08/29 10:03:24;;;;;;;5.32;4.38;;;25.90;99.90;;;;;;4997906;28;20187;-88
2022/08/29 10:06:12;;;;;;;5.07;4.13;;;26.00;99.90;;;;;;4997999;28;20183;-88
2022/08/29 10:08:40;;;;;;;6.25;4.40;;;26.10;99.90;;;;;;4997884;28;20652;-88
2022/08/29 10:11:15;;;;;;;4.68;4.28;;;26.10;99.90;;;;;;4997692;28;20248;-88
2022/08/29 10:13:57;;;;;;;6.28;4.07;;;26.20;99.90;;;;;;4996668;28;20222;-87
2022/08/29 10:16:26;;;;;;;4.63;3.88;;;26.40;99.90;;;;;;4996932;28;20198;-87
2022/08/29 10:19:00;;;;;;;5.00;4.47;;;26.50;99.90;;;;;;4996308;28;20207;-88
2022/08/29 10:22:01;;;;;;;4.72;4.20;;;26.70;99.90;;;;;;4996682;28;20205;-88
2022/08/29 10:24:40;;;;;;;4.80;4.22;;;26.70;99.90;;;;;;4996705;28;20209;-87
2022/08/29 10:27:23;;;;;;;5.82;4.80;;;26.90;99.90;;;;;;5012845;28;20237;-87
2022/08/29 10:30:06;;;;;;;5.50;4.45;;;27.00;99.90;;;;;;4996693;28;20183;-87
2022/08/29 10:33:03;;;;;;;5.15;4.65;;;27.10;99.90;;;;;;4996053;28;20214;-88
2022/08/29 10:35:38;;;;;;;5.82;4.50;;;27.10;99.90;;;;;;4996216;28;20211;-87
2022/08/29 10:38:39;;;;;;;4.53;4.13;;;27.00;99.90;;;;;;5012708;28;20181;-88
2022/08/29 10:41:17;;;;;;;5.30;4.80;;;27.10;99.90;;;;;;4995986;28;20195;-88
2022/08/29 10:44:08;;;;;;;5.40;4.22;;;27.30;99.90;;;;;;4996290;28;20176;-88
2022/08/29 10:46:43;;;;;;;4.97;4.38;;;27.30;99.90;;;;;;4996004;28;20219;-87
2022/08/29 10:49:18;;;;;;;5.25;3.80;;;27.30;99.90;;;;;;4996422;28;20183;-88
2022/08/29 10:52:09;;;;;;;5.80;4.60;;;27.30;99.90;;;;;;4996154;28;20202;-88
2022/08/29 10:54:53;;;;;;;4.97;4.57;;;27.40;99.90;;;;;;4995827;28;20207;-88
2022/08/29 10:57:40;;;;;;;4.65;4.25;;;27.30;99.90;;;;;;4995453;28;20189;-88
2022/08/29 11:00:07;;;;;;;4.97;4.00;;;27.40;99.90;;;;;;4995854;28;20171;-88
2022/08/29 11:02:47;;;;;;;7.45;4.43;;;27.60;99.90;;;;;;4995257;28;20195;-88
2022/08/29 11:05:19;;;;;;;4.63;4.22;;;27.70;99.90;;;;;;4995899;28;20275;-88
2022/08/29 11:08:03;;;;;;;4.50;4.10;;;27.80;99.90;;;;;;4995736;28;20195;-88
2022/08/29 11:10:38;;;;;;;4.72;3.92;;;27.90;99.90;;;;;;4995607;28;20244;-88
2022/08/29 11:13:10;;;;;;;4.53;3.80;;;28.00;99.90;;;;;;4995630;28;20190;-88
2022/08/29 11:15:45;;;;;;;4.65;4.25;;;27.90;99.90;;;;;;4995658;28;20663;-88
2022/08/29 11:18:32;;;;;;;4.60;4.20;;;27.90;99.90;;;;;;4995129;28;20186;-87
2022/08/29 11:21:05;;;;;;;4.70;4.30;;;27.80;99.90;;;;;;4995440;28;20206;-88
2022/08/29 11:23:40;;;;;;;5.03;4.40;;;28.00;99.90;;;;;;4995419;28;20179;-88
2022/08/29 11:26:21;;;;;;;5.55;4.30;;;28.10;99.90;;;;;;4995378;28;20198;-88
2022/08/29 11:29:13;;;;;;;5.18;4.20;;;28.20;99.90;;;;;;4995029;28;20187;-87
2022/08/29 11:31:52;;;;;;;4.63;4.22;;;28.20;99.90;;;;;;5001334;28;20211;-88
2022/08/29 11:34:42;;;;;;;5.05;4.55;;;28.10;99.90;;;;;;4995351;28;20306;-88
2022/08/29 11:37:11;;;;;;;7.55;4.50;;;28.20;99.90;;;;;;4994872;28;20223;-87
2022/08/29 11:40:08;;;;;;;5.25;4.57;;;28.50;99.90;;;;;;4995351;28;20203;-88
2022/08/29 11:42:39;;;;;;;5.28;3.92;;;28.50;99.90;;;;;;4995108;28;20195;-88
2022/08/29 11:45:09;;;;;;;4.28;3.88;;;28.70;99.90;;;;;;4994576;28;20282;-88
2022/08/29 11:47:39;;;;;;;4.90;4.25;;;28.70;99.90;;;;;;4994665;28;20175;-88
2022/08/29 11:50:28;;;;;;;5.32;4.82;;;28.90;99.90;;;;;;4994908;28;20183;-88
2022/08/29 11:53:03;;;;;;;4.75;4.03;;;29.00;99.90;;;;;;5010976;28;20186;-88
2022/08/29 11:55:37;;;;;;;4.78;4.20;;;29.00;99.90;;;;;;4994216;28;20273;-88
2022/08/29 11:58:06;;;;;;;5.72;3.92;;;29.20;99.90;;;;;;4994190;28;20187;-88
2022/08/29 12:00:40;;;;;;;5.53;4.53;;;29.30;99.90;;;;;;4994357;28;20180;-88
2022/08/29 12:03:32;;;;;;;4.90;4.10;;;29.20;99.90;;;;;;4994623;28;20226;-88
2022/08/29 12:06:20;;;;;;;4.60;4.20;;;29.30;99.90;;;;;;4994304;28;20191;-88
2022/08/29 12:09:00;;;;;;;5.32;4.07;;;29.40;99.90;;;;;;4994342;28;20187;-88
2022/08/29 12:12:03;;;;;;;4.57;4.20;;;29.60;99.90;;;;;;4994299;28;20292;-88
2022/08/29 12:14:29;;;;;;;8.30;4.10;;;29.80;99.90;;;;;;5010915;28;20210;-88
2022/08/29 12:16:55;;;;;;;4.45;3.75;;;30.00;99.90;;;;;;4994347;28;20186;-88
2022/08/29 12:20:09;;;;;;;4.38;3.95;;;29.90;99.90;;;;;;4994311;28;20182;-88
2022/08/29 12:22:50;;;;;;;4.05;3.67;;;29.90;99.90;;;;;;4994145;28;20199;-88
2022/08/29 12:25:34;;;;;;;5.35;4.47;;;30.10;99.90;;;;;;4994240;28;20202;-88
2022/08/29 12:28:16;;;;;;;4.60;4.20;;;30.20;99.90;;;;;;4994412;28;20183;-88
2022/08/29 12:31:04;;;;;;;4.45;4.00;;;30.30;99.90;;;;;;4993797;28;20206;-88
2022/08/29 12:33:53;;;;;;;4.97;4.47;;;30.00;99.90;;;;;;4994265;28;20806;-88
2022/08/29 12:36:50;;;;;;;4.90;4.30;;;30.20;99.90;;;;;;4993893;28;20222;-88
2022/08/29 12:39:53;;;;;;;5.40;4.32;;;30.40;99.90;;;;;;4993779;28;20269;-88
2022/08/29 12:43:00;;;;;;;4.80;4.32;;;30.50;99.90;;;;;;4994008;28;20202;-88
2022/08/29 12:45:29;;;;;;;4.22;3.85;;;30.20;99.90;;;;;;5009656;28;20198;-88
2022/08/29 12:48:03;;;;;;;4.90;4.47;;;30.30;99.90;;;;;;4993352;28;20189;-88
2022/08/29 12:50:44;;;;;;;4.50;4.10;;;30.40;99.90;;;;;;4993757;28;20196;-88
2022/08/29 12:53:35;;;;;;;4.20;3.85;;;30.50;99.90;;;;;;5010288;28;20214;-88
2022/08/29 12:56:15;;;;;;;4.57;4.18;;;30.60;99.90;;;;;;4993313;28;20183;-88
2022/08/29 12:58:54;;;;;;;4.63;4.18;;;30.80;99.90;;;;;;4993691;28;20187;-89
2022/08/29 13:01:36;;;;;;;4.60;4.20;;;31.00;99.90;;;;;;4993677;28;20226;-88
2022/08/29 13:04:23;;;;;;;4.50;3.95;;;31.20;99.90;;;;;;4993791;28;20198;-88
2022/08/29 13:06:59;;;;;;;6.20;4.30;;;31.40;99.90;;;;;;4993291;28;20282;-88